Time;durP1;ratioP1;P1;durP2;ratioP2;P2;SDS_P1;SDS_P2;PMS_P1;PMS_P2;Temp;Humidity;BMP_temperature;BMP_pressure;BME280_temperature;BME280_humidity;BME280_pressure;Samples;Min_cycle;Max_cycle;Signal;HPM_P1;HPM_P2
2021/03/08 00:00:55;;;;;;;10.40;6.85;;;;;;;;;;5051916;28;20209;-73
2021/03/08 00:03:21;;;;;;;12.43;7.68;;;;;;;;;;5051651;28;20211;-73
2021/03/08 00:05:47;;;;;;;12.97;6.50;;;;;;;;;;5051279;28;20621;-71
2021/03/08 00:08:13;;;;;;;12.82;7.75;;;;;;;;;;5031292;28;20855;-73
2021/03/08 00:10:39;;;;;;;14.00;6.70;;;;;;;;;;5031826;28;20644;-73
2021/03/08 00:13:06;;;;;;;15.75;7.28;;;;;;;;;;5031625;28;20260;-72
2021/03/08 00:15:33;;;;;;;15.77;8.05;;;;;;;;;;5031520;28;20195;-72
2021/03/08 00:17:59;;;;;;;13.30;9.13;;;;;;;;;;5031537;28;20236;-73
2021/03/08 00:20:26;;;;;;;15.82;8.20;;;;;;;;;;5031394;28;20252;-73
2021/03/08 00:22:52;;;;;;;13.95;7.88;;;;;;;;;;5031752;28;20622;-73
2021/03/08 00:25:19;;;;;;;11.90;7.60;;;;;;;;;;5031700;28;20244;-73
2021/03/08 00:27:45;;;;;;;14.93;8.45;;;;;;;;;;5035247;28;20249;-71
2021/03/08 00:30:13;;;;;;;15.73;7.18;;;;;;;;;;5052382;28;20208;-73
2021/03/08 00:32:39;;;;;;;12.73;7.50;;;;;;;;;;5055200;28;20201;-73
2021/03/08 00:35:06;;;;;;;12.95;6.65;;;;;;;;;;5054684;28;20265;-73
2021/03/08 00:37:32;;;;;;;11.05;7.28;;;;;;;;;;5055413;28;20203;-72
2021/03/08 00:39:58;;;;;;;13.02;7.10;;;;;;;;;;5055043;28;20204;-71
2021/03/08 00:42:24;;;;;;;18.23;9.60;;;;;;;;;;5055138;28;20647;-73
2021/03/08 00:44:50;;;;;;;12.90;7.83;;;;;;;;;;5055168;28;20192;-72
2021/03/08 00:47:16;;;;;;;11.25;6.22;;;;;;;;;;5054860;28;20479;-73
2021/03/08 00:49:42;;;;;;;10.95;8.05;;;;;;;;;;5054780;28;20281;-73
2021/03/08 00:52:08;;;;;;;13.73;8.70;;;;;;;;;;5054859;28;20201;-72
2021/03/08 00:54:34;;;;;;;13.15;8.07;;;;;;;;;;5055249;28;20479;-73
2021/03/08 00:57:00;;;;;;;10.63;7.30;;;;;;;;;;5055364;28;20754;-71
2021/03/08 00:59:26;;;;;;;15.13;7.60;;;;;;;;;;5054229;28;20472;-73
2021/03/08 01:01:52;;;;;;;12.37;7.43;;;;;;;;;;5054821;28;20228;-73
2021/03/08 01:04:19;;;;;;;10.15;7.57;;;;;;;;;;5054212;28;20494;-73
2021/03/08 01:06:45;;;;;;;14.05;8.07;;;;;;;;;;5054638;28;20186;-73
2021/03/08 01:09:11;;;;;;;16.63;9.32;;;;;;;;;;5054395;28;20229;-73
2021/03/08 01:11:37;;;;;;;17.73;8.80;;;;;;;;;;5054363;28;20190;-74
2021/03/08 01:14:03;;;;;;;10.77;6.97;;;;;;;;;;5054350;28;20468;-72
2021/03/08 01:16:29;;;;;;;21.83;8.73;;;;;;;;;;5054080;28;20538;-73
2021/03/08 01:18:55;;;;;;;12.38;9.35;;;;;;;;;;5054313;28;20201;-73
2021/03/08 01:21:22;;;;;;;16.40;9.27;;;;;;;;;;5054362;28;20203;-73
2021/03/08 01:23:48;;;;;;;12.48;8.32;;;;;;;;;;5054143;28;20193;-73
2021/03/08 01:26:14;;;;;;;14.27;7.63;;;;;;;;;;5054161;28;20643;-74
2021/03/08 01:28:40;;;;;;;14.40;7.93;;;;;;;;;;5054313;28;20569;-73
2021/03/08 01:31:06;;;;;;;15.47;8.20;;;;;;;;;;5054444;28;20257;-73
2021/03/08 01:33:32;;;;;;;13.38;8.98;;;;;;;;;;5054467;28;20513;-72
2021/03/08 01:35:57;;;;;;;16.70;10.00;;;;;;;;;;5053941;28;20264;-72
2021/03/08 01:38:24;;;;;;;15.93;8.63;;;;;;;;;;5053911;28;20946;-73
2021/03/08 01:40:50;;;;;;;14.43;7.95;;;;;;;;;;5053692;28;20527;-73
2021/03/08 01:43:17;;;;;;;14.83;8.77;;;;;;;;;;5054226;28;20224;-73
2021/03/08 01:45:42;;;;;;;18.88;8.55;;;;;;;;;;5054025;28;20981;-73
2021/03/08 01:48:09;;;;;;;13.63;8.43;;;;;;;;;;5053624;28;20307;-73
2021/03/08 01:50:35;;;;;;;15.07;8.98;;;;;;;;;;5053729;28;20462;-72
2021/03/08 01:53:02;;;;;;;14.60;9.07;;;;;;;;;;5052981;28;20269;-73
2021/03/08 01:55:29;;;;;;;11.05;8.13;;;;;;;;;;5053943;28;20211;-72
2021/03/08 01:57:55;;;;;;;14.13;8.38;;;;;;;;;;5053501;28;20186;-73
2021/03/08 02:00:22;;;;;;;17.58;9.93;;;;;;;;;;5053822;28;20192;-74
2021/03/08 02:02:48;;;;;;;15.45;8.38;;;;;;;;;;5053470;28;20217;-73
2021/03/08 02:05:15;;;;;;;17.90;8.23;;;;;;;;;;5053463;28;20192;-73
2021/03/08 02:07:41;;;;;;;14.32;9.52;;;;;;;;;;5053319;28;20646;-73
2021/03/08 02:10:08;;;;;;;12.00;7.47;;;;;;;;;;5053208;28;20190;-74
2021/03/08 02:12:40;;;;;;;17.48;9.48;;;;;;;;;;5053139;28;20297;-73
2021/03/08 02:15:11;;;;;;;16.00;9.27;;;;;;;;;;5053072;28;20272;-73
2021/03/08 02:17:41;;;;;;;14.35;6.97;;;;;;;;;;5052924;28;20234;-72
2021/03/08 02:20:34;;;;;;;20.70;9.05;;;;;;;;;;5052613;28;20207;-73
2021/03/08 02:23:18;;;;;;;16.95;8.20;;;;;;;;;;5052551;28;20277;-73
2021/03/08 02:26:00;;;;;;;18.67;9.90;;;;;;;;;;5053054;28;20276;-73
2021/03/08 02:28:49;;;;;;;23.20;8.52;;;;;;;;;;5052529;28;20229;-73
2021/03/08 02:31:16;;;;;;;13.38;8.35;;;;;;;;;;5052779;28;20190;-73
2021/03/08 02:33:45;;;;;;;15.60;8.20;;;;;;;;;;5052939;28;20255;-72
2021/03/08 02:36:12;;;;;;;14.35;9.05;;;;;;;;;;5052441;28;20780;-72
2021/03/08 02:38:40;;;;;;;12.77;7.75;;;;;;;;;;5052969;28;20186;-72
2021/03/08 02:41:07;;;;;;;11.35;7.35;;;;;;;;;;5053062;28;20335;-73
2021/03/08 02:43:36;;;;;;;18.10;10.30;;;;;;;;;;5052942;28;20624;-71
2021/03/08 02:46:05;;;;;;;15.50;8.20;;;;;;;;;;5052937;28;20217;-71
2021/03/08 02:48:32;;;;;;;11.88;9.15;;;;;;;;;;5051650;28;20314;-72
2021/03/08 02:51:02;;;;;;;15.23;8.88;;;;;;;;;;5052881;28;20190;-73
2021/03/08 02:53:30;;;;;;;17.27;8.77;;;;;;;;;;5052542;28;20304;-71
2021/03/08 02:55:59;;;;;;;15.27;10.52;;;;;;;;;;5052384;28;20221;-73
2021/03/08 02:58:26;;;;;;;19.90;8.93;;;;;;;;;;5052752;28;20520;-73
2021/03/08 03:00:52;;;;;;;18.15;9.30;;;;;;;;;;5052621;28;20217;-73
2021/03/08 03:03:20;;;;;;;15.60;10.32;;;;;;;;;;5052345;28;20218;-72
2021/03/08 03:05:48;;;;;;;17.88;9.27;;;;;;;;;;5052626;28;20193;-71
2021/03/08 03:08:14;;;;;;;27.05;11.40;;;;;;;;;;5052048;28;20683;-72
2021/03/08 03:10:41;;;;;;;24.02;9.35;;;;;;;;;;5051980;28;20229;-71
2021/03/08 03:13:07;;;;;;;16.15;9.45;;;;;;;;;;5052519;28;20211;-72
2021/03/08 03:15:35;;;;;;;14.90;8.65;;;;;;;;;;5052017;28;20235;-73
2021/03/08 03:18:01;;;;;;;20.45;8.30;;;;;;;;;;5051908;28;20201;-72
2021/03/08 03:20:28;;;;;;;19.58;10.05;;;;;;;;;;5051777;28;20231;-72
2021/03/08 03:22:56;;;;;;;12.10;9.02;;;;;;;;;;5051673;28;20278;-72
2021/03/08 03:25:24;;;;;;;18.85;9.45;;;;;;;;;;5031798;28;20240;-72
2021/03/08 03:27:50;;;;;;;13.80;8.40;;;;;;;;;;5032257;28;20210;-73
2021/03/08 03:30:17;;;;;;;13.70;9.20;;;;;;;;;;5032294;28;20254;-72
2021/03/08 03:32:44;;;;;;;20.00;9.60;;;;;;;;;;5031899;28;20293;-72
2021/03/08 03:35:11;;;;;;;14.50;10.18;;;;;;;;;;5031946;28;20229;-72
2021/03/08 03:37:37;;;;;;;12.10;8.00;;;;;;;;;;5032325;28;20190;-72
2021/03/08 03:40:04;;;;;;;15.60;8.40;;;;;;;;;;5032199;28;20268;-73
2021/03/08 03:42:30;;;;;;;19.67;10.32;;;;;;;;;;5031929;28;20235;-72
2021/03/08 03:44:57;;;;;;;13.13;9.68;;;;;;;;;;5032158;28;20270;-72
2021/03/08 03:47:23;;;;;;;16.55;8.35;;;;;;;;;;5032324;28;20736;-72
2021/03/08 03:49:49;;;;;;;18.25;11.80;;;;;;;;;;5032366;28;20352;-73
2021/03/08 03:52:15;;;;;;;17.07;8.80;;;;;;;;;;5032072;28;20337;-72
2021/03/08 03:54:41;;;;;;;29.42;11.05;;;;;;;;;;5048790;28;20447;-71
2021/03/08 03:57:09;;;;;;;18.43;9.70;;;;;;;;;;5051910;28;20213;-72
2021/03/08 03:59:39;;;;;;;16.63;11.40;;;;;;;;;;5051373;28;20526;-72
2021/03/08 04:02:07;;;;;;;15.15;8.23;;;;;;;;;;5054732;28;20228;-72
2021/03/08 04:04:34;;;;;;;17.55;9.20;;;;;;;;;;5055414;28;20266;-73
2021/03/08 04:07:03;;;;;;;18.48;8.65;;;;;;;;;;5055890;28;20581;-71
2021/03/08 04:09:29;;;;;;;13.25;8.93;;;;;;;;;;5055823;28;20233;-72
2021/03/08 04:11:56;;;;;;;19.98;8.93;;;;;;;;;;5055810;28;20525;-72
2021/03/08 04:14:24;;;;;;;17.42;9.07;;;;;;;;;;5055252;28;20193;-73
2021/03/08 04:16:51;;;;;;;13.90;9.38;;;;;;;;;;5055305;28;20197;-71
2021/03/08 04:19:19;;;;;;;15.25;8.50;;;;;;;;;;5055273;28;20201;-73
2021/03/08 04:21:47;;;;;;;17.90;8.55;;;;;;;;;;5055725;28;20201;-74
2021/03/08 04:24:13;;;;;;;13.88;8.15;;;;;;;;;;5055089;28;20204;-72
2021/03/08 04:26:39;;;;;;;29.35;10.15;;;;;;;;;;5055612;28;20217;-73
2021/03/08 04:29:06;;;;;;;16.30;10.00;;;;;;;;;;5055571;28;20579;-72
2021/03/08 04:31:33;;;;;;;14.52;10.20;;;;;;;;;;5055718;28;20610;-73
2021/03/08 04:34:00;;;;;;;13.27;8.88;;;;;;;;;;5055482;28;20248;-72
2021/03/08 04:36:26;;;;;;;17.25;9.18;;;;;;;;;;5055012;28;20263;-74
2021/03/08 04:38:53;;;;;;;20.23;9.43;;;;;;;;;;5055459;28;20209;-72
2021/03/08 04:41:19;;;;;;;13.80;8.73;;;;;;;;;;5054906;28;20238;-74
2021/03/08 04:43:45;;;;;;;17.02;10.48;;;;;;;;;;5055210;28;20259;-71
2021/03/08 04:46:11;;;;;;;15.10;9.88;;;;;;;;;;5055632;28;20545;-73
2021/03/08 04:48:38;;;;;;;14.27;7.65;;;;;;;;;;5055268;28;20348;-72
2021/03/08 04:51:05;;;;;;;27.80;9.65;;;;;;;;;;5055872;28;20937;-73
2021/03/08 04:53:31;;;;;;;14.50;8.82;;;;;;;;;;5055395;28;20242;-73
2021/03/08 04:55:57;;;;;;;21.48;8.57;;;;;;;;;;5055254;28;20184;-73
2021/03/08 04:58:23;;;;;;;15.07;10.98;;;;;;;;;;5055578;28;20295;-73
2021/03/08 05:00:49;;;;;;;16.38;9.13;;;;;;;;;;5054739;28;20182;-72
2021/03/08 05:03:15;;;;;;;12.20;9.07;;;;;;;;;;5054514;28;20576;-71
2021/03/08 05:05:44;;;;;;;19.65;10.52;;;;;;;;;;5054756;28;20191;-73
2021/03/08 05:08:11;;;;;;;17.23;10.80;;;;;;;;;;5054917;28;20281;-73
2021/03/08 05:10:38;;;;;;;17.92;10.05;;;;;;;;;;5054302;28;20327;-73
2021/03/08 05:13:06;;;;;;;14.38;9.50;;;;;;;;;;5054582;28;20289;-72
2021/03/08 05:15:33;;;;;;;16.83;10.55;;;;;;;;;;5054381;28;20652;-72
2021/03/08 05:17:59;;;;;;;21.55;10.00;;;;;;;;;;5054428;28;20270;-74
2021/03/08 05:20:25;;;;;;;16.75;9.43;;;;;;;;;;5054701;28;20201;-73
2021/03/08 05:22:53;;;;;;;22.98;10.32;;;;;;;;;;5054509;28;20280;-72
2021/03/08 05:25:20;;;;;;;20.20;9.25;;;;;;;;;;5034833;28;20190;-71
2021/03/08 05:27:46;;;;;;;15.15;8.20;;;;;;;;;;5034773;28;20237;-73
2021/03/08 05:30:15;;;;;;;15.02;10.32;;;;;;;;;;5034332;28;20271;-73
2021/03/08 05:32:42;;;;;;;13.30;8.20;;;;;;;;;;5034394;28;20202;-73
2021/03/08 05:35:09;;;;;;;20.38;10.02;;;;;;;;;;5034630;28;20317;-73
2021/03/08 05:37:35;;;;;;;15.55;9.95;;;;;;;;;;5034545;28;20186;-73
2021/03/08 05:40:04;;;;;;;16.08;9.32;;;;;;;;;;5034595;28;20336;-73
2021/03/08 05:42:34;;;;;;;14.23;10.13;;;;;;;;;;5034233;28;20240;-73
2021/03/08 05:45:01;;;;;;;18.35;9.00;;;;;;;;;;5034491;28;20197;-74
2021/03/08 05:47:57;;;;;;;15.70;9.50;;;;;;;;;;5053562;28;20284;-72
2021/03/08 05:50:33;;;;;;;16.20;9.50;;;;;;;;;;5053962;28;20228;-73
2021/03/08 05:53:22;;;;;;;14.30;8.63;;;;;;;;;;5053619;28;20193;-72
2021/03/08 05:56:08;;;;;;;23.25;8.50;;;;;;;;;;4998203;28;20325;-72
2021/03/08 05:58:54;;;;;;;16.05;10.38;;;;;;;;;;5054434;28;20608;-71
2021/03/08 06:01:32;;;;;;;14.45;7.93;;;;;;;;;;5053979;28;20225;-72
2021/03/08 06:04:12;;;;;;;15.27;9.25;;;;;;;;;;5054532;28;20715;-73
2021/03/08 06:06:47;;;;;;;16.33;8.77;;;;;;;;;;5054031;28;20215;-72
2021/03/08 06:09:20;;;;;;;15.13;9.05;;;;;;;;;;5053491;28;20205;-72
2021/03/08 06:11:52;;;;;;;17.98;8.60;;;;;;;;;;5053914;28;20205;-73
2021/03/08 06:14:20;;;;;;;19.30;8.20;;;;;;;;;;5053345;28;20219;-73
2021/03/08 06:16:46;;;;;;;16.45;9.30;;;;;;;;;;5053296;28;20233;-72
2021/03/08 06:19:12;;;;;;;16.90;10.73;;;;;;;;;;5053443;28;20198;-72
2021/03/08 06:21:38;;;;;;;14.88;7.70;;;;;;;;;;5054084;28;20300;-72
2021/03/08 06:24:05;;;;;;;11.20;8.73;;;;;;;;;;5052284;28;20240;-73
2021/03/08 06:26:31;;;;;;;10.82;7.75;;;;;;;;;;5053400;28;20520;-73
2021/03/08 06:28:58;;;;;;;15.95;9.60;;;;;;;;;;5053216;28;20278;-72
2021/03/08 06:31:25;;;;;;;18.10;10.02;;;;;;;;;;5053702;28;20195;-73
2021/03/08 06:33:51;;;;;;;20.08;8.85;;;;;;;;;;5053474;28;20228;-72
2021/03/08 06:36:18;;;;;;;13.27;8.93;;;;;;;;;;5053231;28;20556;-71
2021/03/08 06:38:44;;;;;;;13.43;7.57;;;;;;;;;;5054515;28;20220;-73
2021/03/08 06:41:10;;;;;;;13.80;7.35;;;;;;;;;;5053130;28;20674;-72
2021/03/08 06:43:36;;;;;;;15.57;8.68;;;;;;;;;;5052992;28;20184;-73
2021/03/08 06:46:03;;;;;;;13.25;9.02;;;;;;;;;;5053171;28;20561;-73
2021/03/08 06:48:30;;;;;;;16.55;11.30;;;;;;;;;;5052805;28;20220;-72
2021/03/08 06:51:10;;;;;;;15.48;8.18;;;;;;;;;;5053242;28;20201;-72
2021/03/08 06:53:37;;;;;;;16.88;9.60;;;;;;;;;;5053028;28;20539;-72
2021/03/08 06:56:12;;;;;;;14.13;7.75;;;;;;;;;;5052913;28;20209;-72
2021/03/08 06:58:38;;;;;;;20.50;10.35;;;;;;;;;;5052443;28;20247;-73
2021/03/08 07:01:11;;;;;;;9.80;6.93;;;;;;;;;;5052745;28;20193;-71
2021/03/08 07:03:37;;;;;;;14.40;6.95;;;;;;;;;;5052606;28;20190;-72
2021/03/08 07:06:16;;;;;;;17.08;9.00;;;;;;;;;;5052508;28;20228;-71
2021/03/08 07:08:43;;;;;;;11.27;8.63;;;;;;;;;;5052254;28;20563;-72
2021/03/08 07:11:16;;;;;;;11.52;6.85;;;;;;;;;;5052383;28;20323;-73
2021/03/08 07:13:42;;;;;;;11.52;7.18;;;;;;;;;;5052320;28;20224;-71
2021/03/08 07:16:09;;;;;;;13.73;8.60;;;;;;;;;;5052634;28;20651;-74
2021/03/08 07:18:35;;;;;;;15.35;8.55;;;;;;;;;;5052449;28;20232;-74
2021/03/08 07:21:17;;;;;;;11.15;7.00;;;;;;;;;;5052450;28;20189;-72
2021/03/08 07:23:44;;;;;;;11.80;8.63;;;;;;;;;;5052809;28;20185;-72
2021/03/08 07:26:10;;;;;;;12.52;8.75;;;;;;;;;;5052402;28;20197;-73
2021/03/08 07:28:37;;;;;;;9.45;6.72;;;;;;;;;;5052389;28;20217;-74
2021/03/08 07:31:03;;;;;;;11.80;6.45;;;;;;;;;;5052699;28;20194;-72
2021/03/08 07:33:30;;;;;;;13.05;6.90;;;;;;;;;;5052962;28;20255;-72
2021/03/08 07:35:56;;;;;;;13.35;7.80;;;;;;;;;;5051968;28;20233;-71
2021/03/08 07:38:29;;;;;;;7.72;5.20;;;;;;;;;;5052891;28;20182;-74
2021/03/08 07:41:08;;;;;;;13.80;5.50;;;;;;;;;;5052180;28;20193;-73
2021/03/08 07:43:34;;;;;;;13.65;6.35;;;;;;;;;;5052600;28;20208;-74
2021/03/08 07:46:00;;;;;;;9.95;5.45;;;;;;;;;;5052141;28;20212;-73
2021/03/08 07:48:26;;;;;;;14.85;6.28;;;;;;;;;;5052317;28;20241;-71
2021/03/08 07:50:53;;;;;;;12.00;5.93;;;;;;;;;;5052426;28;20205;-73
2021/03/08 07:53:23;;;;;;;11.90;5.65;;;;;;;;;;5052260;28;20548;-72
2021/03/08 07:55:50;;;;;;;22.83;11.57;;;;;;;;;;5051912;28;20185;-73
2021/03/08 07:58:17;;;;;;;12.02;7.82;;;;;;;;;;5051670;28;20233;-72
2021/03/08 08:00:43;;;;;;;12.85;5.20;;;;;;;;;;5051845;28;20511;-72
2021/03/08 08:03:09;;;;;;;6.78;5.22;;;;;;;;;;5051174;28;20190;-73
2021/03/08 08:05:35;;;;;;;9.87;6.27;;;;;;;;;;5051958;28;20615;-73
2021/03/08 08:08:02;;;;;;;14.40;6.63;;;;;;;;;;5051440;28;20483;-73
2021/03/08 08:10:28;;;;;;;12.82;7.07;;;;;;;;;;5052243;28;20670;-73
2021/03/08 08:12:59;;;;;;;16.25;7.13;;;;;;;;;;5051983;28;20185;-74
2021/03/08 08:15:27;;;;;;;13.45;7.40;;;;;;;;;;5052134;28;20196;-72
2021/03/08 08:17:54;;;;;;;13.60;5.15;;;;;;;;;;5051736;28;20528;-72
2021/03/08 08:20:21;;;;;;;10.07;5.90;;;;;;;;;;5051695;28;20194;-73
2021/03/08 08:22:53;;;;;;;12.15;6.43;;;;;;;;;;5051583;28;20205;-73
2021/03/08 08:25:21;;;;;;;7.20;4.93;;;;;;;;;;5051433;28;20212;-73
2021/03/08 08:27:47;;;;;;;15.70;7.65;;;;;;;;;;5051373;28;20232;-73
2021/03/08 08:30:14;;;;;;;11.45;6.20;;;;;;;;;;5051744;28;20213;-71
2021/03/08 08:32:47;;;;;;;10.70;6.05;;;;;;;;;;5050067;28;20297;-74
2021/03/08 08:35:16;;;;;;;13.18;6.15;;;;;;;;;;5051619;28;20282;-73
2021/03/08 08:37:42;;;;;;;8.18;5.65;;;;;;;;;;5051984;28;20182;-73
2021/03/08 08:40:14;;;;;;;12.25;6.15;;;;;;;;;;5051888;28;20201;-73
2021/03/08 08:42:41;;;;;;;14.63;6.05;;;;;;;;;;5051609;28;20210;-71
2021/03/08 08:45:22;;;;;;;10.77;5.35;;;;;;;;;;5051515;28;20536;-72
2021/03/08 08:48:02;;;;;;;11.45;5.50;;;;;;;;;;5053394;28;20282;-73
2021/03/08 08:50:29;;;;;;;6.40;4.20;;;;;;;;;;5055742;28;20193;-71
2021/03/08 08:52:56;;;;;;;11.88;6.05;;;;;;;;;;5055324;28;20200;-73
2021/03/08 08:55:23;;;;;;;7.38;5.05;;;;;;;;;;5055376;28;20366;-73
2021/03/08 08:58:07;;;;;;;9.02;4.50;;;;;;;;;;5054672;28;20202;-73
2021/03/08 09:00:35;;;;;;;6.78;4.28;;;;;;;;;;5055377;28;20632;-73
2021/03/08 09:03:01;;;;;;;8.25;6.15;;;;;;;;;;5055029;28;20202;-74
2021/03/08 09:05:40;;;;;;;11.38;5.53;;;;;;;;;;5055492;28;20650;-73
2021/03/08 09:08:25;;;;;;;11.57;5.43;;;;;;;;;;5054765;28;20227;-73
2021/03/08 09:10:51;;;;;;;6.10;4.93;;;;;;;;;;5050650;28;20196;-74
2021/03/08 09:13:17;;;;;;;9.10;5.47;;;;;;;;;;5055241;28;20204;-72
2021/03/08 09:15:44;;;;;;;7.38;4.50;;;;;;;;;;5054794;28;20196;-72
2021/03/08 09:18:12;;;;;;;9.30;5.43;;;;;;;;;;5055356;28;20200;-73
2021/03/08 09:20:39;;;;;;;6.68;4.80;;;;;;;;;;5055360;28;20677;-72
2021/03/08 09:23:20;;;;;;;6.25;3.65;;;;;;;;;;5055315;28;20186;-73
2021/03/08 09:25:54;;;;;;;8.75;4.80;;;;;;;;;;5055172;28;20610;-73
2021/03/08 09:28:20;;;;;;;5.32;3.88;;;;;;;;;;5054732;28;20681;-72
2021/03/08 09:30:48;;;;;;;8.93;4.35;;;;;;;;;;5054733;28;20203;-74
2021/03/08 09:33:15;;;;;;;8.07;4.82;;;;;;;;;;5054318;28;20204;-72
2021/03/08 09:35:42;;;;;;;8.40;4.45;;;;;;;;;;5053962;28;20247;-72
2021/03/08 09:38:09;;;;;;;10.27;4.80;;;;;;;;;;5053481;28;20481;-73
2021/03/08 09:40:36;;;;;;;6.07;4.50;;;;;;;;;;5053866;28;20211;-71
2021/03/08 09:43:02;;;;;;;7.35;5.22;;;;;;;;;;5054221;28;20212;-73
2021/03/08 09:45:31;;;;;;;7.70;4.90;;;;;;;;;;5054096;28;20186;-72
2021/03/08 09:47:58;;;;;;;4.50;3.40;;;;;;;;;;5053515;28;20215;-72
2021/03/08 09:50:26;;;;;;;8.07;4.53;;;;;;;;;;5054303;28;20296;-74
2021/03/08 09:52:53;;;;;;;10.23;4.75;;;;;;;;;;5054131;28;20693;-72
2021/03/08 09:55:22;;;;;;;9.55;5.22;;;;;;;;;;5054274;28;20675;-71
2021/03/08 09:57:48;;;;;;;8.63;4.63;;;;;;;;;;5053478;28;20231;-71
2021/03/08 10:00:15;;;;;;;8.20;4.07;;;;;;;;;;5053849;28;20723;-72
2021/03/08 10:02:42;;;;;;;7.55;4.05;;;;;;;;;;5053849;28;20489;-72
2021/03/08 10:05:10;;;;;;;5.63;3.38;;;;;;;;;;5054032;28;20710;-72
2021/03/08 10:07:49;;;;;;;13.90;4.43;;;;;;;;;;5053971;28;20198;-72
2021/03/08 10:10:16;;;;;;;8.13;4.90;;;;;;;;;;5053190;28;20220;-71
2021/03/08 10:12:42;;;;;;;6.38;4.38;;;;;;;;;;5053582;28;20181;-71
2021/03/08 10:15:09;;;;;;;6.93;3.50;;;;;;;;;;5052792;28;20201;-73
2021/03/08 10:17:36;;;;;;;6.35;3.60;;;;;;;;;;5053452;28;20666;-72
2021/03/08 10:20:06;;;;;;;6.07;3.00;;;;;;;;;;5053099;28;20233;-72
2021/03/08 10:22:33;;;;;;;8.50;3.33;;;;;;;;;;5053338;28;20213;-73
2021/03/08 10:25:01;;;;;;;3.90;2.55;;;;;;;;;;5053537;28;20205;-73
2021/03/08 10:27:27;;;;;;;5.40;2.70;;;;;;;;;;5052709;28;20205;-73
2021/03/08 10:29:53;;;;;;;5.90;2.60;;;;;;;;;;5053328;28;20455;-74
2021/03/08 10:32:19;;;;;;;8.48;3.55;;;;;;;;;;5052651;28;20944;-72
2021/03/08 10:34:45;;;;;;;7.65;3.75;;;;;;;;;;5052797;28;20335;-72
2021/03/08 10:37:12;;;;;;;12.73;4.80;;;;;;;;;;5053198;28;20886;-73
2021/03/08 10:39:39;;;;;;;5.07;3.60;;;;;;;;;;5052574;28;20231;-73
2021/03/08 10:42:05;;;;;;;6.28;3.42;;;;;;;;;;5052945;28;20189;-72
2021/03/08 10:44:31;;;;;;;6.22;3.83;;;;;;;;;;5052748;28;20274;-74
2021/03/08 10:46:57;;;;;;;8.95;4.00;;;;;;;;;;5051740;28;20439;-71
2021/03/08 10:49:24;;;;;;;7.90;4.17;;;;;;;;;;5052474;28;20239;-71
2021/03/08 10:51:50;;;;;;;5.43;3.97;;;;;;;;;;5052754;28;20440;-72
2021/03/08 10:54:20;;;;;;;7.65;3.50;;;;;;;;;;5052738;28;20209;-74
2021/03/08 10:56:47;;;;;;;4.18;3.08;;;;;;;;;;5052259;28;20545;-72
2021/03/08 10:59:22;;;;;;;8.50;3.50;;;;;;;;;;5032498;28;20188;-71
2021/03/08 11:01:59;;;;;;;5.30;3.42;;;;;;;;;;5049173;28;20223;-72
2021/03/08 11:04:25;;;;;;;8.75;3.83;;;;;;;;;;5052382;28;20640;-74
2021/03/08 11:06:51;;;;;;;6.80;3.42;;;;;;;;;;5052331;28;20208;-73
2021/03/08 11:09:24;;;;;;;5.13;2.83;;;;;;;;;;5051845;28;20217;-72
2021/03/08 11:11:51;;;;;;;5.38;3.38;;;;;;;;;;5052460;28;20198;-72
2021/03/08 11:14:17;;;;;;;10.27;4.10;;;;;;;;;;5052256;28;20201;-73
2021/03/08 11:16:49;;;;;;;7.90;4.68;;;;;;;;;;5052271;28;20247;-72
2021/03/08 11:19:15;;;;;;;4.60;3.35;;;;;;;;;;5052021;28;20229;-71
2021/03/08 11:21:41;;;;;;;4.50;3.30;;;;;;;;;;5052474;28;20201;-73
2021/03/08 11:24:19;;;;;;;7.60;3.58;;;;;;;;;;5052015;28;20315;-74
2021/03/08 11:27:06;;;;;;;7.90;4.20;;;;;;;;;;5050737;28;20446;-73
2021/03/08 11:29:33;;;;;;;9.35;4.60;;;;;;;;;;5046862;28;20698;-74
2021/03/08 11:31:59;;;;;;;4.18;3.03;;;;;;;;;;5052444;28;20197;-71
2021/03/08 11:34:38;;;;;;;12.87;5.00;;;;;;;;;;5052391;28;20201;-72
2021/03/08 11:37:09;;;;;;;4.70;3.30;;;;;;;;;;5052900;28;21306;-71
2021/03/08 11:39:39;;;;;;;7.00;4.60;;;;;;;;;;5052288;28;20204;-73
2021/03/08 11:42:05;;;;;;;7.00;4.38;;;;;;;;;;5052316;28;20228;-73
2021/03/08 11:44:31;;;;;;;6.38;3.05;;;;;;;;;;5051898;28;20203;-73
2021/03/08 11:46:58;;;;;;;8.95;4.22;;;;;;;;;;5051613;28;20216;-73
2021/03/08 11:49:25;;;;;;;7.60;3.92;;;;;;;;;;5051303;28;20203;-72
2021/03/08 11:51:51;;;;;;;5.50;3.25;;;;;;;;;;5051937;28;20182;-72
2021/03/08 11:54:17;;;;;;;7.73;3.83;;;;;;;;;;5051489;28;20539;-71
2021/03/08 11:59:41;;;;;;;5.50;4.05;;;;;;;;;;5016629;28;20215;-72
2021/03/08 12:02:08;;;;;;;4.22;2.83;;;;;;;;;;5051734;28;20193;-74
2021/03/08 12:04:34;;;;;;;7.10;4.60;;;;;;;;;;5051881;28;20600;-73
2021/03/08 12:07:01;;;;;;;4.65;2.78;;;;;;;;;;5051095;28;20202;-72
2021/03/08 12:09:26;;;;;;;7.10;3.97;;;;;;;;;;5051962;28;20216;-72
2021/03/08 12:11:52;;;;;;;7.80;4.23;;;;;;;;;;5051340;28;20202;-72
2021/03/08 12:14:21;;;;;;;6.90;4.37;;;;;;;;;;5051362;28;20477;-72
2021/03/08 12:16:47;;;;;;;6.85;3.75;;;;;;;;;;5050933;28;20792;-74
2021/03/08 12:19:15;;;;;;;9.80;4.72;;;;;;;;;;5051439;28;20209;-72
2021/03/08 12:21:48;;;;;;;6.30;4.30;;;;;;;;;;5052365;28;20252;-73
2021/03/08 12:24:15;;;;;;;8.60;5.28;;;;;;;;;;5054952;28;20600;-73
2021/03/08 12:26:41;;;;;;;7.70;4.40;;;;;;;;;;5054626;28;20654;-72
2021/03/08 12:29:09;;;;;;;6.97;4.40;;;;;;;;;;5054730;28;20209;-74
2021/03/08 12:31:35;;;;;;;6.18;3.92;;;;;;;;;;5054858;28;20436;-75
2021/03/08 12:34:01;;;;;;;7.60;4.10;;;;;;;;;;5055579;28;20201;-73
2021/03/08 12:36:29;;;;;;;6.22;4.55;;;;;;;;;;5054726;28;20244;-73
2021/03/08 12:38:55;;;;;;;10.88;4.20;;;;;;;;;;5054727;28;20197;-73
2021/03/08 12:41:21;;;;;;;8.45;4.30;;;;;;;;;;5054668;28;20201;-74
2021/03/08 12:43:48;;;;;;;9.02;5.35;;;;;;;;;;5054616;28;20248;-74
2021/03/08 12:46:14;;;;;;;6.85;4.30;;;;;;;;;;5054070;28;20641;-73
2021/03/08 12:48:43;;;;;;;8.15;4.70;;;;;;;;;;5054382;28;20690;-72
2021/03/08 12:51:09;;;;;;;10.13;5.05;;;;;;;;;;5054083;28;20207;-73
2021/03/08 12:53:36;;;;;;;8.02;4.05;;;;;;;;;;5054358;28;20234;-72
2021/03/08 12:56:02;;;;;;;6.60;4.20;;;;;;;;;;5054751;28;20225;-73
2021/03/08 12:58:28;;;;;;;7.10;4.20;;;;;;;;;;5054544;28;20199;-72
2021/03/08 13:00:55;;;;;;;8.10;4.50;;;;;;;;;;5054526;28;20207;-73
2021/03/08 13:03:21;;;;;;;7.45;4.30;;;;;;;;;;5054613;28;20489;-71
2021/03/08 13:05:47;;;;;;;6.35;4.20;;;;;;;;;;5054396;28;20703;-71
2021/03/08 13:08:13;;;;;;;6.80;3.80;;;;;;;;;;5054029;28;20206;-73
2021/03/08 13:10:39;;;;;;;6.70;4.43;;;;;;;;;;5054118;28;20218;-72
2021/03/08 13:13:05;;;;;;;8.13;4.55;;;;;;;;;;5053955;28;20213;-73
2021/03/08 13:15:32;;;;;;;6.45;3.80;;;;;;;;;;5053322;28;20245;-73
2021/03/08 13:18:17;;;;;;;6.00;3.72;;;;;;;;;;5054706;28;20187;-73
2021/03/08 13:20:44;;;;;;;6.43;3.75;;;;;;;;;;5054001;28;20256;-73
2021/03/08 13:23:10;;;;;;;7.03;4.18;;;;;;;;;;5053822;28;20296;-73
2021/03/08 13:25:36;;;;;;;8.38;4.15;;;;;;;;;;5053761;28;20183;-73
2021/03/08 13:28:03;;;;;;;5.88;3.40;;;;;;;;;;5053958;28;20272;-72
2021/03/08 13:30:29;;;;;;;7.63;3.83;;;;;;;;;;5053476;28;20223;-73
2021/03/08 13:32:55;;;;;;;8.63;4.50;;;;;;;;;;5053804;28;20312;-73
2021/03/08 13:35:21;;;;;;;4.20;3.25;;;;;;;;;;5053819;28;20228;-72
2021/03/08 13:37:49;;;;;;;6.88;3.63;;;;;;;;;;5054001;28;20247;-73
2021/03/08 13:40:16;;;;;;;7.38;3.88;;;;;;;;;;5054095;28;20192;-74
2021/03/08 13:43:00;;;;;;;8.18;3.60;;;;;;;;;;5053241;28;20207;-74
2021/03/08 13:45:58;;;;;;;8.05;4.00;;;;;;;;;;5044302;28;20196;-74
2021/03/08 13:48:25;;;;;;;8.95;3.40;;;;;;;;;;5045361;28;20207;-72
2021/03/08 13:50:54;;;;;;;5.85;3.80;;;;;;;;;;5053592;28;20537;-74
2021/03/08 13:53:20;;;;;;;5.97;3.30;;;;;;;;;;5053403;28;20188;-72
2021/03/08 13:55:46;;;;;;;5.70;3.50;;;;;;;;;;5053032;28;20201;-72
2021/03/08 13:58:14;;;;;;;9.50;4.90;;;;;;;;;;5053666;28;20212;-73
2021/03/08 14:00:41;;;;;;;4.90;2.83;;;;;;;;;;5053276;28;20563;-73
2021/03/08 14:03:13;;;;;;;5.30;3.30;;;;;;;;;;5053341;28;20612;-72
2021/03/08 14:05:45;;;;;;;4.93;3.28;;;;;;;;;;5053193;28;20528;-73
2021/03/08 14:08:11;;;;;;;7.15;3.50;;;;;;;;;;5053620;28;20204;-74
2021/03/08 14:10:37;;;;;;;12.75;3.45;;;;;;;;;;5053163;28;20328;-72
2021/03/08 14:13:03;;;;;;;6.82;4.40;;;;;;;;;;5053393;28;20212;-73
2021/03/08 14:15:33;;;;;;;6.18;3.60;;;;;;;;;;5053226;28;20225;-74
2021/03/08 14:17:59;;;;;;;6.85;3.03;;;;;;;;;;5053263;28;20212;-73
2021/03/08 14:20:25;;;;;;;7.47;4.15;;;;;;;;;;5052967;28;20186;-73
2021/03/08 14:22:53;;;;;;;6.30;4.03;;;;;;;;;;5052889;28;20201;-72
2021/03/08 14:25:19;;;;;;;6.45;3.00;;;;;;;;;;5052255;28;20651;-73
2021/03/08 14:27:45;;;;;;;6.05;3.20;;;;;;;;;;5052564;28;20293;-73
2021/03/08 14:30:12;;;;;;;4.85;2.60;;;;;;;;;;5052689;28;20287;-73
2021/03/08 14:32:38;;;;;;;9.57;3.35;;;;;;;;;;5052968;28;20701;-73
2021/03/08 14:35:04;;;;;;;7.65;2.80;;;;;;;;;;5052703;28;20225;-74
2021/03/08 14:37:30;;;;;;;3.95;2.95;;;;;;;;;;5052582;28;20240;-74
2021/03/08 14:39:59;;;;;;;6.28;3.10;;;;;;;;;;5052406;28;20197;-74
2021/03/08 14:42:25;;;;;;;6.05;3.08;;;;;;;;;;5051885;28;20251;-72